Time;durP1;ratioP1;P1;durP2;ratioP2;P2;SDS_P1;SDS_P2;PMS_P1;PMS_P2;Temp;Humidity;BMP_temperature;BMP_pressure;BME280_temperature;BME280_humidity;BME280_pressure;Samples;Min_cycle;Max_cycle;Signal;HPM_P1;HPM_P2
2020/12/13 00:00:01;;;;;;;147.27;85.13;;;;;;;;;;5015452;28;20088;-54
2020/12/13 00:02:27;;;;;;;137.90;78.30;;;;;;;;;;5015267;28;20055;-54
2020/12/13 00:04:53;;;;;;;121.07;70.90;;;;;;;;;;5015857;28;20030;-55
2020/12/13 00:07:19;;;;;;;132.63;76.55;;;;;;;;;;5015409;28;20091;-54
2020/12/13 00:09:45;;;;;;;119.97;67.03;;;;;;;;;;5029256;28;20516;-55
2020/12/13 00:12:12;;;;;;;117.05;66.45;;;;;;;;;;5014925;28;20473;-54
2020/12/13 00:14:38;;;;;;;111.88;64.13;;;;;;;;;;5015246;28;20805;-55
2020/12/13 00:17:04;;;;;;;121.00;69.50;;;;;;;;;;5015111;28;20062;-55
2020/12/13 00:19:30;;;;;;;111.30;65.97;;;;;;;;;;5014969;28;20110;-56
2020/12/13 00:21:57;;;;;;;118.80;69.25;;;;;;;;;;5015096;28;20555;-56
2020/12/13 00:24:23;;;;;;;116.80;70.47;;;;;;;;;;5014957;28;20444;-52
2020/12/13 00:26:50;;;;;;;126.97;74.40;;;;;;;;;;5014812;28;20362;-54
2020/12/13 00:29:16;;;;;;;121.80;70.07;;;;;;;;;;5014532;28;20046;-53
2020/12/13 00:31:42;;;;;;;125.45;72.97;;;;;;;;;;5028178;28;20029;-52
2020/12/13 00:34:08;;;;;;;120.93;69.70;;;;;;;;;;5014421;28;20040;-54
2020/12/13 00:36:35;;;;;;;120.78;68.82;;;;;;;;;;5014647;28;20036;-55
2020/12/13 00:39:01;;;;;;;123.45;69.10;;;;;;;;;;5014300;28;20037;-55
2020/12/13 00:41:27;;;;;;;126.30;71.07;;;;;;;;;;5014200;28;20030;-52
2020/12/13 00:43:53;;;;;;;116.65;67.28;;;;;;;;;;5014440;28;20158;-54
2020/12/13 00:46:19;;;;;;;111.43;65.43;;;;;;;;;;5014609;28;20434;-53
2020/12/13 00:48:45;;;;;;;110.35;63.17;;;;;;;;;;5014087;28;20068;-55
2020/12/13 00:51:11;;;;;;;120.07;66.53;;;;;;;;;;5013328;28;20026;-52
2020/12/13 00:53:37;;;;;;;113.15;61.50;;;;;;;;;;5014064;28;20061;-53
2020/12/13 00:56:04;;;;;;;106.18;62.53;;;;;;;;;;5014026;28;20022;-53
2020/12/13 00:58:30;;;;;;;108.57;62.72;;;;;;;;;;5013864;28;20045;-54
2020/12/13 01:00:56;;;;;;;109.68;63.17;;;;;;;;;;5013044;28;20169;-54
2020/12/13 01:03:22;;;;;;;109.20;61.22;;;;;;;;;;5013225;28;20026;-54
2020/12/13 01:05:48;;;;;;;108.78;60.10;;;;;;;;;;5014249;28;20033;-55
2020/12/13 01:08:14;;;;;;;103.20;61.72;;;;;;;;;;5014126;28;20032;-54
2020/12/13 01:10:40;;;;;;;112.00;63.38;;;;;;;;;;5013881;28;20097;-55
2020/12/13 01:13:06;;;;;;;115.68;66.07;;;;;;;;;;5013921;28;20488;-54
2020/12/13 01:15:32;;;;;;;110.97;63.60;;;;;;;;;;5014097;28;20029;-54
2020/12/13 01:17:58;;;;;;;109.00;59.33;;;;;;;;;;5013934;28;20485;-54
2020/12/13 01:20:24;;;;;;;98.03;55.65;;;;;;;;;;5013544;28;20037;-54
2020/12/13 01:22:51;;;;;;;95.90;54.88;;;;;;;;;;5014014;28;20030;-54
2020/12/13 01:25:17;;;;;;;95.28;54.28;;;;;;;;;;5013906;28;20017;-54
2020/12/13 01:27:43;;;;;;;95.65;55.75;;;;;;;;;;5011838;28;20018;-54
2020/12/13 01:30:09;;;;;;;88.68;51.90;;;;;;;;;;5013832;28;20022;-55
2020/12/13 01:32:38;;;;;;;86.45;49.63;;;;;;;;;;5013564;28;20381;-55
2020/12/13 01:35:05;;;;;;;74.38;44.17;;;;;;;;;;5013615;28;20029;-54
2020/12/13 01:37:31;;;;;;;72.65;44.33;;;;;;;;;;5013834;28;20026;-54
2020/12/13 01:39:57;;;;;;;79.35;44.78;;;;;;;;;;5013621;28;20079;-52
2020/12/13 01:42:23;;;;;;;78.88;45.47;;;;;;;;;;5013741;28;20072;-55
2020/12/13 01:44:49;;;;;;;75.93;44.58;;;;;;;;;;5012012;28;20026;-54
2020/12/13 01:47:15;;;;;;;80.85;47.15;;;;;;;;;;5013493;28;20093;-54
2020/12/13 01:49:44;;;;;;;86.80;50.58;;;;;;;;;;5013350;28;20025;-53
2020/12/13 01:55:08;;;;;;;92.07;53.58;;;;;;;;;;5013658;28;20358;-54
2020/12/13 01:57:35;;;;;;;89.43;53.10;;;;;;;;;;5013136;28;20034;-52
2020/12/13 02:00:05;;;;;;;100.68;56.30;;;;;;;;;;5012768;28;20036;-56
2020/12/13 02:02:33;;;;;;;101.85;58.40;;;;;;;;;;5012977;28;20068;-53
2020/12/13 02:05:00;;;;;;;104.95;57.92;;;;;;;;;;5013485;28;20083;-53
2020/12/13 02:07:28;;;;;;;104.00;59.70;;;;;;;;;;5013383;28;20014;-53
2020/12/13 02:09:54;;;;;;;107.25;60.97;;;;;;;;;;5012553;28;20405;-53
2020/12/13 02:12:20;;;;;;;106.97;60.40;;;;;;;;;;5011750;28;20442;-54
2020/12/13 02:14:46;;;;;;;110.45;62.38;;;;;;;;;;5013294;28;20474;-54
2020/12/13 02:17:12;;;;;;;112.28;64.95;;;;;;;;;;5013240;28;20410;-53
2020/12/13 02:19:38;;;;;;;106.75;61.28;;;;;;;;;;5013033;28;20022;-54
2020/12/13 02:22:09;;;;;;;105.28;61.28;;;;;;;;;;5013220;28;20466;-53
2020/12/13 02:24:36;;;;;;;105.85;60.90;;;;;;;;;;5012118;28;20473;-54
2020/12/13 02:27:05;;;;;;;115.07;66.50;;;;;;;;;;5012880;28;20032;-55
2020/12/13 02:29:31;;;;;;;109.72;62.22;;;;;;;;;;5012642;28;20033;-55
2020/12/13 02:31:57;;;;;;;114.70;64.80;;;;;;;;;;5012954;28;20076;-54
2020/12/13 02:34:23;;;;;;;114.43;65.25;;;;;;;;;;5008153;28;20038;-52
2020/12/13 02:36:49;;;;;;;130.05;73.45;;;;;;;;;;5006400;28;20026;-54
2020/12/13 02:39:15;;;;;;;126.35;71.45;;;;;;;;;;5011611;28;20030;-54
2020/12/13 02:41:41;;;;;;;121.05;69.35;;;;;;;;;;5011557;28;20070;-51
2020/12/13 02:44:08;;;;;;;130.30;75.75;;;;;;;;;;5012140;28;20026;-54
2020/12/13 02:46:34;;;;;;;130.48;77.65;;;;;;;;;;5011233;28;20049;-53
2020/12/13 02:49:00;;;;;;;135.80;80.63;;;;;;;;;;5012178;28;20021;-55
2020/12/13 02:51:26;;;;;;;135.10;81.35;;;;;;;;;;5012220;28;20018;-54
2020/12/13 02:53:52;;;;;;;142.10;82.88;;;;;;;;;;5011609;28;20048;-54
2020/12/13 02:56:18;;;;;;;143.05;84.35;;;;;;;;;;5010750;28;20029;-54
2020/12/13 02:58:44;;;;;;;157.18;85.88;;;;;;;;;;5011982;28;20076;-52
2020/12/13 03:01:10;;;;;;;146.55;82.65;;;;;;;;;;5011941;28;20045;-52
2020/12/13 03:03:37;;;;;;;130.55;72.50;;;;;;;;;;5012030;28;20033;-52
2020/12/13 03:06:03;;;;;;;131.10;74.15;;;;;;;;;;5012169;28;20018;-54
2020/12/13 03:08:29;;;;;;;142.80;79.22;;;;;;;;;;5011841;28;20489;-54
2020/12/13 03:10:55;;;;;;;142.40;81.00;;;;;;;;;;5011535;28;20456;-55
2020/12/13 03:13:21;;;;;;;146.52;81.72;;;;;;;;;;5011322;28;20413;-55
2020/12/13 03:15:47;;;;;;;133.07;75.70;;;;;;;;;;5012047;28;20469;-55
2020/12/13 03:18:13;;;;;;;147.52;82.75;;;;;;;;;;5012333;28;20101;-53
2020/12/13 03:20:39;;;;;;;121.75;66.57;;;;;;;;;;5011932;28;20072;-54
2020/12/13 03:23:05;;;;;;;116.53;63.95;;;;;;;;;;5012343;28;20026;-53
2020/12/13 03:25:31;;;;;;;115.05;64.82;;;;;;;;;;5011849;28;20049;-53
2020/12/13 03:27:57;;;;;;;112.30;63.95;;;;;;;;;;4997426;28;20409;-52
2020/12/13 03:30:23;;;;;;;108.68;58.33;;;;;;;;;;5012259;28;20026;-54
2020/12/13 03:32:49;;;;;;;113.93;63.60;;;;;;;;;;5012115;28;20022;-55
2020/12/13 03:35:15;;;;;;;110.22;62.42;;;;;;;;;;5012283;28;20053;-54
2020/12/13 03:37:41;;;;;;;116.30;60.95;;;;;;;;;;5011946;28;20061;-52
2020/12/13 03:40:07;;;;;;;120.18;64.60;;;;;;;;;;5011920;28;20046;-54
2020/12/13 03:42:33;;;;;;;117.47;66.75;;;;;;;;;;5012126;28;20440;-55
2020/12/13 03:44:59;;;;;;;115.70;64.03;;;;;;;;;;5011994;28;20026;-54
2020/12/13 03:47:25;;;;;;;117.47;63.25;;;;;;;;;;5012045;28;20097;-53
2020/12/13 03:49:51;;;;;;;119.63;65.90;;;;;;;;;;5011478;28;20084;-53
2020/12/13 03:52:17;;;;;;;116.45;64.30;;;;;;;;;;5012061;28;20076;-54
2020/12/13 03:54:43;;;;;;;125.50;69.68;;;;;;;;;;5011712;28;20037;-53
2020/12/13 03:57:09;;;;;;;124.65;67.95;;;;;;;;;;5011891;28;20029;-54
2020/12/13 03:59:35;;;;;;;120.13;67.30;;;;;;;;;;5011773;28;20048;-54
2020/12/13 04:02:04;;;;;;;117.55;64.47;;;;;;;;;;5011494;28;20065;-53
2020/12/13 04:04:30;;;;;;;113.80;64.22;;;;;;;;;;5011609;28;20026;-55
2020/12/13 04:06:56;;;;;;;115.63;63.75;;;;;;;;;;5011769;28;20026;-53
2020/12/13 04:09:22;;;;;;;130.23;66.35;;;;;;;;;;5011375;28;20092;-55
2020/12/13 04:11:48;;;;;;;119.93;65.68;;;;;;;;;;5011521;28;20037;-53
2020/12/13 04:14:14;;;;;;;119.72;63.45;;;;;;;;;;5011189;28;20129;-53
2020/12/13 04:16:41;;;;;;;121.63;61.33;;;;;;;;;;5011528;28;20068;-54
2020/12/13 04:19:07;;;;;;;121.18;63.45;;;;;;;;;;5011371;28;20056;-54
2020/12/13 04:21:33;;;;;;;116.72;62.42;;;;;;;;;;5011379;28;20033;-53
2020/12/13 04:23:59;;;;;;;125.90;66.82;;;;;;;;;;5011412;28;20030;-53
2020/12/13 04:26:25;;;;;;;124.00;66.00;;;;;;;;;;5011529;28;20032;-55
2020/12/13 04:28:51;;;;;;;129.00;69.28;;;;;;;;;;5014723;28;20049;-55
2020/12/13 04:31:17;;;;;;;142.40;76.22;;;;;;;;;;5014915;28;20113;-53
2020/12/13 04:33:43;;;;;;;144.00;74.90;;;;;;;;;;5014890;28;20458;-56
2020/12/13 04:36:09;;;;;;;146.77;76.72;;;;;;;;;;5014832;28;20056;-53
2020/12/13 04:38:35;;;;;;;143.40;74.50;;;;;;;;;;5014994;28;20030;-55
2020/12/13 04:41:01;;;;;;;131.52;69.85;;;;;;;;;;5014683;28;20636;-54
2020/12/13 04:43:28;;;;;;;124.65;66.10;;;;;;;;;;5014475;28;20017;-55
2020/12/13 04:45:54;;;;;;;124.25;65.18;;;;;;;;;;5014668;28;20026;-54
2020/12/13 04:48:21;;;;;;;123.70;62.40;;;;;;;;;;5014285;28;20030;-53
2020/12/13 04:50:49;;;;;;;119.97;61.88;;;;;;;;;;5014782;28;20029;-55
2020/12/13 04:53:17;;;;;;;122.43;63.08;;;;;;;;;;5014572;28;20025;-54
2020/12/13 04:55:53;;;;;;;121.53;60.55;;;;;;;;;;5014750;28;20473;-53
2020/12/13 04:58:20;;;;;;;136.52;69.60;;;;;;;;;;5014237;28;20018;-54
2020/12/13 05:00:50;;;;;;;144.35;72.18;;;;;;;;;;5014553;28;20057;-53
2020/12/13 05:03:17;;;;;;;181.82;90.72;;;;;;;;;;5014688;28;20022;-53
2020/12/13 05:05:43;;;;;;;177.93;87.03;;;;;;;;;;5014817;28;20014;-53
2020/12/13 05:08:09;;;;;;;178.63;88.32;;;;;;;;;;5014613;28;20125;-53
2020/12/13 05:10:38;;;;;;;160.63;80.30;;;;;;;;;;5014411;28;20050;-54
2020/12/13 05:13:05;;;;;;;159.80;78.15;;;;;;;;;;5014390;28;20028;-54
2020/12/13 05:15:31;;;;;;;166.85;82.07;;;;;;;;;;5014349;28;20037;-55
2020/12/13 05:17:59;;;;;;;161.48;80.47;;;;;;;;;;5014231;28;20030;-53
2020/12/13 05:20:27;;;;;;;150.98;72.28;;;;;;;;;;5014308;28;20497;-54
2020/12/13 05:22:54;;;;;;;151.18;75.03;;;;;;;;;;5014315;28;20029;-54
2020/12/13 05:25:20;;;;;;;162.50;79.35;;;;;;;;;;5014199;28;20026;-53
2020/12/13 05:27:50;;;;;;;162.60;78.68;;;;;;;;;;5014083;28;20053;-54
2020/12/13 05:30:16;;;;;;;148.48;72.80;;;;;;;;;;5014086;28;20030;-53
2020/12/13 05:32:42;;;;;;;136.93;65.07;;;;;;;;;;5014091;28;20498;-53
2020/12/13 05:35:12;;;;;;;134.23;62.08;;;;;;;;;;5014186;28;20061;-54
2020/12/13 05:37:38;;;;;;;134.30;62.75;;;;;;;;;;5013659;28;20029;-53
2020/12/13 05:40:07;;;;;;;130.68;62.83;;;;;;;;;;5013887;28;20401;-53
2020/12/13 05:42:39;;;;;;;142.18;64.40;;;;;;;;;;5013812;28;20398;-53
2020/12/13 05:53:01;;;;;;;126.60;59.08;;;;;;;;;;5013674;28;20045;-54
2020/12/13 05:55:27;;;;;;;136.05;63.47;;;;;;;;;;5013889;28;20030;-53
2020/12/13 05:57:54;;;;;;;126.82;61.08;;;;;;;;;;5013601;28;20036;-55
2020/12/13 06:00:20;;;;;;;138.00;63.05;;;;;;;;;;5013529;28;20030;-54
2020/12/13 06:02:49;;;;;;;136.63;64.88;;;;;;;;;;5013825;28;20021;-53
2020/12/13 06:05:15;;;;;;;142.98;65.20;;;;;;;;;;5013104;28;20048;-53
2020/12/13 06:07:48;;;;;;;142.95;66.97;;;;;;;;;;5013468;28;20022;-53
2020/12/13 06:10:17;;;;;;;146.30;68.40;;;;;;;;;;5013155;28;20057;-55
2020/12/13 06:12:45;;;;;;;144.32;70.63;;;;;;;;;;5013585;28;20061;-53
2020/12/13 06:15:11;;;;;;;155.32;74.85;;;;;;;;;;5013204;28;20050;-53
2020/12/13 06:17:37;;;;;;;168.18;80.85;;;;;;;;;;5013415;28;20037;-55
2020/12/13 06:20:03;;;;;;;151.00;72.18;;;;;;;;;;5012581;28;20030;-54
2020/12/13 06:22:29;;;;;;;156.68;75.05;;;;;;;;;;5013272;28;20373;-52
2020/12/13 06:24:56;;;;;;;145.30;70.15;;;;;;;;;;5012668;28;20084;-50
2020/12/13 06:27:22;;;;;;;150.20;71.97;;;;;;;;;;5012350;28;20038;-51
2020/12/13 06:29:48;;;;;;;149.05;72.22;;;;;;;;;;5012463;28;20470;-53
2020/12/13 06:32:14;;;;;;;152.13;73.95;;;;;;;;;;5012631;28;20058;-53
2020/12/13 06:34:44;;;;;;;150.57;70.97;;;;;;;;;;5012291;28;20022;-53
2020/12/13 06:37:11;;;;;;;147.60;69.88;;;;;;;;;;5012797;28;20033;-53
2020/12/13 06:39:39;;;;;;;145.52;71.95;;;;;;;;;;5012572;28;20355;-53
2020/12/13 06:42:05;;;;;;;138.63;67.10;;;;;;;;;;5011609;28;20116;-54
2020/12/13 06:44:31;;;;;;;139.60;65.15;;;;;;;;;;5012560;28;20053;-54
2020/12/13 06:46:57;;;;;;;145.27;68.47;;;;;;;;;;5012798;28;20082;-54
2020/12/13 06:49:23;;;;;;;180.20;87.78;;;;;;;;;;5011528;28;20024;-54
2020/12/13 06:51:49;;;;;;;167.30;84.38;;;;;;;;;;5012679;28;20083;-54
2020/12/13 06:54:17;;;;;;;150.13;72.22;;;;;;;;;;5012382;28;20022;-52
2020/12/13 06:56:43;;;;;;;168.85;84.82;;;;;;;;;;5011442;28;20026;-55
2020/12/13 06:59:10;;;;;;;164.25;81.85;;;;;;;;;;5012334;28;20151;-52
2020/12/13 07:01:40;;;;;;;150.00;72.00;;;;;;;;;;5012355;28;20034;-52
2020/12/13 07:04:15;;;;;;;148.75;71.72;;;;;;;;;;5011854;28;20409;-54
2020/12/13 07:06:43;;;;;;;148.10;72.43;;;;;;;;;;5012404;28;20342;-54
2020/12/13 07:09:12;;;;;;;163.30;83.43;;;;;;;;;;5011965;28;20034;-53
2020/12/13 07:11:39;;;;;;;168.80;89.93;;;;;;;;;;5010719;28;20041;-53
2020/12/13 07:14:07;;;;;;;165.98;85.72;;;;;;;;;;5012363;28;20021;-53
2020/12/13 07:16:41;;;;;;;147.85;75.70;;;;;;;;;;5012148;28;20030;-56
2020/12/13 07:19:09;;;;;;;153.95;75.38;;;;;;;;;;5011641;28;20018;-53
2020/12/13 07:21:35;;;;;;;183.48;91.75;;;;;;;;;;5012107;28;20046;-53
2020/12/13 07:24:02;;;;;;;140.20;66.47;;;;;;;;;;5012135;28;20381;-53
2020/12/13 07:26:29;;;;;;;153.88;77.93;;;;;;;;;;5012232;28;20022;-54
2020/12/13 07:28:56;;;;;;;165.55;88.13;;;;;;;;;;5012085;28;20022;-54
2020/12/13 07:31:23;;;;;;;148.52;75.25;;;;;;;;;;5012121;28;20025;-54
2020/12/13 07:33:49;;;;;;;167.45;85.65;;;;;;;;;;5011357;28;20065;-53
2020/12/13 07:36:15;;;;;;;208.50;103.88;;;;;;;;;;5012134;28;20076;-54
2020/12/13 07:38:42;;;;;;;239.05;121.13;;;;;;;;;;5011996;28;20474;-54
2020/12/13 07:41:21;;;;;;;234.82;121.47;;;;;;;;;;5011393;28;20091;-55
2020/12/13 07:43:56;;;;;;;225.70;115.43;;;;;;;;;;5012116;28;20026;-53
2020/12/13 07:46:22;;;;;;;233.88;122.40;;;;;;;;;;5011720;28;20022;-53
2020/12/13 07:48:59;;;;;;;207.63;106.40;;;;;;;;;;5011510;28;20040;-54
2020/12/13 07:51:25;;;;;;;218.15;116.25;;;;;;;;;;4999116;28;20440;-56
2020/12/13 07:53:51;;;;;;;199.57;105.82;;;;;;;;;;5011149;28;20390;-54
2020/12/13 07:56:27;;;;;;;200.07;100.22;;;;;;;;;;5011864;28;20491;-54
2020/12/13 07:59:09;;;;;;;177.05;83.07;;;;;;;;;;5011605;28;20462;-54
2020/12/13 08:01:35;;;;;;;163.95;79.47;;;;;;;;;;5014697;28;20355;-51
2020/12/13 08:04:01;;;;;;;179.43;91.47;;;;;;;;;;5014573;28;20026;-55
2020/12/13 08:06:27;;;;;;;196.98;97.93;;;;;;;;;;5014751;28;20470;-54
2020/12/13 08:08:53;;;;;;;160.15;83.43;;;;;;;;;;5014790;28;20030;-51
2020/12/13 08:11:19;;;;;;;220.40;110.88;;;;;;;;;;5014224;28;20080;-55
2020/12/13 08:13:50;;;;;;;231.68;114.30;;;;;;;;;;5015313;28;20026;-54
2020/12/13 08:16:16;;;;;;;157.25;79.50;;;;;;;;;;5014811;28;20030;-54
2020/12/13 08:18:44;;;;;;;152.88;75.32;;;;;;;;;;5015412;28;20022;-54
2020/12/13 08:21:13;;;;;;;149.70;75.50;;;;;;;;;;5029294;28;20129;-55
2020/12/13 08:23:39;;;;;;;175.48;85.22;;;;;;;;;;5015471;28;20032;-54
2020/12/13 08:26:06;;;;;;;236.55;123.03;;;;;;;;;;5015195;28;20037;-59
2020/12/13 08:28:33;;;;;;;239.27;127.40;;;;;;;;;;5014044;28;20014;-53
2020/12/13 08:31:00;;;;;;;215.50;120.90;;;;;;;;;;5014949;28;20036;-54
2020/12/13 08:33:26;;;;;;;154.05;82.95;;;;;;;;;;5014763;28;20022;-53
2020/12/13 08:35:52;;;;;;;146.98;76.32;;;;;;;;;;5015077;28;20099;-54
2020/12/13 08:38:21;;;;;;;140.05;64.57;;;;;;;;;;5015105;28;20099;-53
2020/12/13 08:40:47;;;;;;;135.45;63.28;;;;;;;;;;5014840;28;20426;-54
2020/12/13 08:43:18;;;;;;;129.80;68.03;;;;;;;;;;5014872;28;20018;-54
2020/12/13 08:45:54;;;;;;;128.00;63.83;;;;;;;;;;5014661;28;20030;-54
2020/12/13 08:48:25;;;;;;;130.10;65.35;;;;;;;;;;5014175;28;20033;-53
2020/12/13 08:51:07;;;;;;;136.68;70.07;;;;;;;;;;5013694;28;20056;-53
2020/12/13 08:53:33;;;;;;;140.95;73.78;;;;;;;;;;5014571;28;20034;-54
2020/12/13 08:55:59;;;;;;;146.07;79.22;;;;;;;;;;5014769;28;20022;-54
2020/12/13 08:58:25;;;;;;;166.40;91.28;;;;;;;;;;5012504;28;20063;-55
2020/12/13 09:00:51;;;;;;;162.23;86.30;;;;;;;;;;5014393;28;20034;-55
2020/12/13 09:03:28;;;;;;;164.50;92.25;;;;;;;;;;5014021;28;20136;-54
2020/12/13 09:05:54;;;;;;;152.93;81.15;;;;;;;;;;5014276;28;20104;-53
2020/12/13 09:08:23;;;;;;;152.10;78.75;;;;;;;;;;5014329;28;20108;-57
2020/12/13 09:10:52;;;;;;;145.85;77.90;;;;;;;;;;5014247;28;20264;-53
2020/12/13 09:13:19;;;;;;;128.35;71.70;;;;;;;;;;5013830;28;20029;-53
2020/12/13 09:15:45;;;;;;;130.00;71.88;;;;;;;;;;5014092;28;20036;-53
2020/12/13 09:18:11;;;;;;;114.70;62.97;;;;;;;;;;5014113;28;20428;-55
2020/12/13 09:20:37;;;;;;;102.15;61.00;;;;;;;;;;5014135;28;20548;-54
2020/12/13 09:23:08;;;;;;;88.60;49.90;;;;;;;;;;5013870;28;20025;-53
2020/12/13 09:25:38;;;;;;;86.93;50.80;;;;;;;;;;5014182;28;20381;-54
2020/12/13 09:28:04;;;;;;;87.07;51.05;;;;;;;;;;5013199;28;20099;-54
2020/12/13 09:30:30;;;;;;;77.57;44.78;;;;;;;;;;5013824;28;20036;-55
2020/12/13 09:32:56;;;;;;;76.97;45.67;;;;;;;;;;5013604;28;20069;-56
2020/12/13 09:35:22;;;;;;;82.88;50.25;;;;;;;;;;5013958;28;20026;-53
2020/12/13 09:37:48;;;;;;;86.70;50.72;;;;;;;;;;5013832;28;20053;-53
2020/12/13 09:40:15;;;;;;;92.90;55.70;;;;;;;;;;5012931;28;20060;-55
2020/12/13 09:42:41;;;;;;;99.38;63.33;;;;;;;;;;5014019;28;20029;-54
2020/12/13 09:45:07;;;;;;;88.88;51.00;;;;;;;;;;5013739;28;20022;-54
2020/12/13 09:47:33;;;;;;;86.15;51.78;;;;;;;;;;5013474;28;20029;-52
2020/12/13 09:49:59;;;;;;;85.53;51.00;;;;;;;;;;5013790;28;20041;-55
2020/12/13 09:52:28;;;;;;;94.40;54.63;;;;;;;;;;5013372;28;20026;-53
2020/12/13 09:54:54;;;;;;;83.85;48.20;;;;;;;;;;5013022;28;20034;-52
2020/12/13 09:57:20;;;;;;;72.45;44.70;;;;;;;;;;5012187;28;20030;-53
2020/12/13 09:59:46;;;;;;;81.45;46.72;;;;;;;;;;5012700;28;20025;-51
2020/12/13 10:02:12;;;;;;;86.70;50.30;;;;;;;;;;5012208;28;20037;-52
2020/12/13 10:04:39;;;;;;;121.97;66.30;;;;;;;;;;5012909;28;20030;-54
2020/12/13 10:09:43;;;;;;;85.55;51.95;;;;;;;;;;5011961;28;20066;-53
2020/12/13 10:12:09;;;;;;;93.25;53.10;;;;;;;;;;5013384;28;20034;-52
2020/12/13 10:14:35;;;;;;;105.22;55.88;;;;;;;;;;5012821;28;20022;-58
2020/12/13 10:17:02;;;;;;;115.47;64.63;;;;;;;;;;5012327;28;20061;-52
2020/12/13 10:19:28;;;;;;;111.18;67.55;;;;;;;;;;5012443;28;20092;-52
2020/12/13 10:21:54;;;;;;;92.07;54.80;;;;;;;;;;5012985;28;20037;-52
2020/12/13 10:24:20;;;;;;;175.77;92.05;;;;;;;;;;5011166;28;20085;-51
2020/12/13 10:26:46;;;;;;;153.05;77.95;;;;;;;;;;5012486;28;20045;-52
2020/12/13 10:29:13;;;;;;;91.47;51.22;;;;;;;;;;5011043;28;20033;-50
2020/12/13 10:31:41;;;;;;;107.18;61.35;;;;;;;;;;5011272;28;20040;-53
2020/12/13 10:34:08;;;;;;;132.65;71.32;;;;;;;;;;5012430;28;20068;-52
2020/12/13 10:36:34;;;;;;;140.50;70.85;;;;;;;;;;5012126;28;20022;-52
2020/12/13 10:39:03;;;;;;;115.57;58.95;;;;;;;;;;5012077;28;20575;-51
2020/12/13 10:41:29;;;;;;;114.50;57.50;;;;;;;;;;5011896;28;20041;-52
2020/12/13 10:43:55;;;;;;;109.18;59.47;;;;;;;;;;5011989;28;20038;-54
2020/12/13 10:46:21;;;;;;;119.03;62.10;;;;;;;;;;5011432;28;20763;-53
2020/12/13 10:48:47;;;;;;;95.35;55.10;;;;;;;;;;5011831;28;20492;-54
2020/12/13 10:51:17;;;;;;;127.95;67.55;;;;;;;;;;5011879;28;20537;-54
2020/12/13 10:53:43;;;;;;;93.22;57.17;;;;;;;;;;5012256;28;20026;-51
2020/12/13 10:56:10;;;;;;;70.88;43.78;;;;;;;;;;5011194;28;20053;-53
2020/12/13 10:58:36;;;;;;;105.50;60.58;;;;;;;;;;5010606;28;20022;-52
2020/12/13 11:01:02;;;;;;;102.40;63.60;;;;;;;;;;5011223;28;20038;-52
2020/12/13 11:03:29;;;;;;;98.13;56.08;;;;;;;;;;5012136;28;20026;-52
2020/12/13 11:05:55;;;;;;;162.52;81.05;;;;;;;;;;5011831;28;20026;-50
2020/12/13 11:08:22;;;;;;;179.52;96.18;;;;;;;;;;5011760;28;20022;-53
2020/12/13 11:10:49;;;;;;;153.05;81.07;;;;;;;;;;5011462;28;20062;-52
2020/12/13 11:13:15;;;;;;;164.43;77.97;;;;;;;;;;5011831;28;20032;-54
2020/12/13 11:15:44;;;;;;;134.23;66.18;;;;;;;;;;5011276;28;20137;-53
2020/12/13 11:18:11;;;;;;;142.05;72.97;;;;;;;;;;5010798;28;20361;-52
2020/12/13 11:20:37;;;;;;;161.52;80.72;;;;;;;;;;5012005;28;20062;-52
2020/12/13 11:23:03;;;;;;;180.80;89.50;;;;;;;;;;5011938;28;20032;-51
2020/12/13 11:25:29;;;;;;;169.43;91.50;;;;;;;;;;5012332;28;20061;-52
2020/12/13 11:27:56;;;;;;;174.40;95.53;;;;;;;;;;5011905;28;20026;-53
2020/12/13 11:30:22;;;;;;;102.95;60.28;;;;;;;;;;5011957;28;20026;-52
2020/12/13 11:32:49;;;;;;;100.93;61.50;;;;;;;;;;5011381;28;20018;-52
2020/12/13 11:35:16;;;;;;;131.48;71.55;;;;;;;;;;5013031;28;20014;-53
2020/12/13 11:37:42;;;;;;;96.10;53.45;;;;;;;;;;5014198;28;20060;-53
2020/12/13 11:40:08;;;;;;;98.50;54.67;;;;;;;;;;5015320;28;20045;-51
2020/12/13 11:42:35;;;;;;;90.95;54.08;;;;;;;;;;5015781;28;20563;-54
2020/12/13 11:45:01;;;;;;;100.32;55.00;;;;;;;;;;5014452;28;20054;-51
2020/12/13 11:47:27;;;;;;;120.82;65.97;;;;;;;;;;5014206;28;20052;-52
2020/12/13 11:49:53;;;;;;;100.50;59.85;;;;;;;;;;5014703;28;20080;-52
2020/12/13 11:52:20;;;;;;;109.78;58.88;;;;;;;;;;5015379;28;20030;-53
2020/12/13 11:54:46;;;;;;;125.22;70.47;;;;;;;;;;5015557;28;20354;-51
2020/12/13 11:57:12;;;;;;;118.97;65.95;;;;;;;;;;5015202;28;20030;-54
2020/12/13 11:59:38;;;;;;;113.00;65.18;;;;;;;;;;5015322;28;20018;-52
2020/12/13 12:02:04;;;;;;;96.20;58.75;;;;;;;;;;5014187;28;20044;-52
2020/12/13 12:04:30;;;;;;;101.07;58.08;;;;;;;;;;5014789;28;20469;-53
2020/12/13 12:06:56;;;;;;;96.07;53.75;;;;;;;;;;5013823;28;20038;-53
2020/12/13 12:09:22;;;;;;;105.75;60.22;;;;;;;;;;5012980;28;20030;-53
2020/12/13 12:11:49;;;;;;;84.78;49.65;;;;;;;;;;5014333;28;20030;-51
2020/12/13 12:14:15;;;;;;;120.57;66.00;;;;;;;;;;5014346;28;20473;-52
2020/12/13 12:16:42;;;;;;;107.18;59.95;;;;;;;;;;5013849;28;20109;-53
2020/12/13 12:19:09;;;;;;;105.40;59.97;;;;;;;;;;5014702;28;20512;-53
2020/12/13 12:21:36;;;;;;;131.00;71.13;;;;;;;;;;5014551;28;20038;-53
2020/12/13 12:24:03;;;;;;;132.75;71.90;;;;;;;;;;5012640;28;20100;-51
2020/12/13 12:26:33;;;;;;;104.68;61.55;;;;;;;;;;5014008;28;20022;-50
2020/12/13 12:29:00;;;;;;;108.85;64.82;;;;;;;;;;5014660;28;20045;-53
2020/12/13 12:31:26;;;;;;;87.20;51.05;;;;;;;;;;5013935;28;20018;-52
2020/12/13 12:33:52;;;;;;;100.38;58.22;;;;;;;;;;5014439;28;20053;-52
2020/12/13 12:36:19;;;;;;;102.82;59.45;;;;;;;;;;5014086;28;20040;-53
2020/12/13 12:38:46;;;;;;;115.40;67.25;;;;;;;;;;5011966;28;20017;-51
2020/12/13 12:41:16;;;;;;;99.00;57.53;;;;;;;;;;5013914;28;20045;-53
2020/12/13 12:43:42;;;;;;;99.53;57.17;;;;;;;;;;5014108;28;20030;-52
2020/12/13 12:46:08;;;;;;;89.65;54.10;;;;;;;;;;5013350;28;20033;-54
2020/12/13 12:48:34;;;;;;;87.90;53.50;;;;;;;;;;5013640;28;20033;-53
2020/12/13 12:51:01;;;;;;;83.47;49.33;;;;;;;;;;5013094;28;20034;-53
2020/12/13 12:53:27;;;;;;;80.22;48.42;;;;;;;;;;5014355;28;20014;-52
2020/12/13 12:55:54;;;;;;;94.45;50.72;;;;;;;;;;5013563;28;20026;-54
2020/12/13 12:58:20;;;;;;;115.78;62.65;;;;;;;;;;5013590;28;20123;-51
2020/12/13 13:00:51;;;;;;;118.65;64.40;;;;;;;;;;5013527;28;20237;-52
2020/12/13 13:03:17;;;;;;;159.00;85.57;;;;;;;;;;5013681;28;20014;-51
2020/12/13 13:08:30;;;;;;;118.07;60.38;;;;;;;;;;5013956;28;20116;-53
2020/12/13 13:11:06;;;;;;;137.45;66.82;;;;;;;;;;5012122;28;20382;-53
2020/12/13 13:13:34;;;;;;;131.32;68.68;;;;;;;;;;5011631;28;20119;-51
2020/12/13 13:16:00;;;;;;;167.13;89.20;;;;;;;;;;5013328;28;20029;-54
2020/12/13 13:18:30;;;;;;;185.98;96.32;;;;;;;;;;5013328;28;20026;-53
2020/12/13 13:20:58;;;;;;;218.63;120.93;;;;;;;;;;5013315;28;20033;-53
2020/12/13 13:23:26;;;;;;;201.55;98.82;;;;;;;;;;5013398;28;20536;-52
2020/12/13 13:25:52;;;;;;;218.93;109.60;;;;;;;;;;5013348;28;20029;-53
2020/12/13 13:28:18;;;;;;;202.85;100.22;;;;;;;;;;5012816;28;20351;-53
2020/12/13 13:30:44;;;;;;;156.18;79.93;;;;;;;;;;5012141;28;20113;-54
2020/12/13 13:33:10;;;;;;;171.88;90.03;;;;;;;;;;5012943;28;20118;-53
2020/12/13 13:35:36;;;;;;;175.70;91.75;;;;;;;;;;5013024;28;20030;-55
2020/12/13 13:38:03;;;;;;;145.73;75.30;;;;;;;;;;5012948;28;20436;-55
2020/12/13 13:40:29;;;;;;;112.55;63.50;;;;;;;;;;5013088;28;20072;-53
2020/12/13 13:42:59;;;;;;;130.93;74.35;;;;;;;;;;5010624;28;20030;-52
2020/12/13 13:45:38;;;;;;;148.02;83.65;;;;;;;;;;5012741;28;20548;-56
2020/12/13 13:50:43;;;;;;;149.35;84.10;;;;;;;;;;5008760;28;20034;-52
2020/12/13 13:53:10;;;;;;;182.98;106.50;;;;;;;;;;5012820;28;20022;-53
2020/12/13 13:55:44;;;;;;;129.73;74.38;;;;;;;;;;5013489;28;20389;-54
2020/12/13 13:58:11;;;;;;;111.00;60.28;;;;;;;;;;5012373;28;20029;-53
2020/12/13 14:00:37;;;;;;;144.98;84.70;;;;;;;;;;5013119;28;20049;-54
2020/12/13 14:03:03;;;;;;;203.68;122.68;;;;;;;;;;5012827;28;20068;-52
2020/12/13 14:05:36;;;;;;;132.05;75.78;;;;;;;;;;5013147;28;20370;-50
2020/12/13 14:10:30;;;;;;;110.63;60.60;;;;;;;;;;5011391;28;20041;-50
2020/12/13 14:12:56;;;;;;;160.65;97.80;;;;;;;;;;5010446;28;20038;-52
2020/12/13 14:15:22;;;;;;;121.90;71.72;;;;;;;;;;5011408;28;20049;-51
2020/12/13 14:17:48;;;;;;;121.07;74.05;;;;;;;;;;5011696;28;20038;-52
2020/12/13 14:20:14;;;;;;;125.40;74.32;;;;;;;;;;5011885;28;20024;-52
2020/12/13 14:22:40;;;;;;;104.00;59.20;;;;;;;;;;5012166;28;20037;-52
2020/12/13 14:25:06;;;;;;;105.88;60.60;;;;;;;;;;5011970;28;20026;-52